createdAt,value
2022-10-17T00:01:49.860Z,89.47
2022-10-17T00:04:18.485Z,89.49
2022-10-17T00:06:47.108Z,89.41
2022-10-17T00:09:15.716Z,89.51
2022-10-17T00:11:44.325Z,89.35
2022-10-17T00:14:12.987Z,89.52
2022-10-17T00:16:43.024Z,89.07
2022-10-17T00:19:11.658Z,89.22
2022-10-17T00:21:40.307Z,89.08
2022-10-17T00:24:09.099Z,89.24
2022-10-17T00:26:37.727Z,88.88
2022-10-17T00:29:06.825Z,88.98
2022-10-17T00:31:36.080Z,89.05
2022-10-17T00:34:06.112Z,89.18
2022-10-17T00:36:35.036Z,88.77
2022-10-17T00:39:04.099Z,89.06
2022-10-17T00:41:35.741Z,88.79
2022-10-17T00:45:00.082Z,88.35
2022-10-17T00:47:30.170Z,88.55
2022-10-17T00:52:35.926Z,88.83
2022-10-17T00:55:13.442Z,88.85
2022-10-17T00:57:46.055Z,88.69
2022-10-17T01:00:17.705Z,88.27
2022-10-17T01:02:46.852Z,87.52
2022-10-17T01:05:19.648Z,87.59
2022-10-17T01:07:52.104Z,87.94
2022-10-17T01:13:13.489Z,87.74
2022-10-17T01:16:01.025Z,87.15
2022-10-17T01:18:46.100Z,87.58
2022-10-17T01:21:34.856Z,87.22
2022-10-17T01:25:07.500Z,86.62
2022-10-17T01:27:53.783Z,86.84
2022-10-17T01:31:00.579Z,87.27
2022-10-17T01:33:49.633Z,87.35
2022-10-17T01:36:38.900Z,87.24
2022-10-17T01:39:19.168Z,87.46
2022-10-17T01:41:59.222Z,87.64
2022-10-17T01:44:38.261Z,87.63
2022-10-17T01:47:16.910Z,87.23
2022-10-17T01:49:50.680Z,87.45
2022-10-17T01:52:26.551Z,87.94
2022-10-17T01:55:04.655Z,87.33
2022-10-17T01:57:39.204Z,87.24
2022-10-17T02:00:16.551Z,87.25
2022-10-17T02:02:51.105Z,87.09
2022-10-17T02:05:25.771Z,87.16
2022-10-17T02:07:54.429Z,87.08
2022-10-17T02:10:34.318Z,87.23
2022-10-17T02:13:10.878Z,87.46
2022-10-17T02:16:07.577Z,87.51
2022-10-17T02:19:07.493Z,87.68
2022-10-17T02:21:51.835Z,87.46
2022-10-17T02:24:39.098Z,87.71
2022-10-17T02:27:15.051Z,87.69
2022-10-17T02:29:50.345Z,87.80
2022-10-17T02:32:26.327Z,87.40
2022-10-17T02:35:01.948Z,87.67
2022-10-17T02:37:33.187Z,87.64
2022-10-17T02:40:04.501Z,87.08
2022-10-17T02:42:35.149Z,87.39
2022-10-17T02:45:08.731Z,87.69
2022-10-17T02:47:49.659Z,87.77
2022-10-17T02:50:24.566Z,87.67
2022-10-17T02:53:00.207Z,87.84
2022-10-17T02:55:34.530Z,87.90
2022-10-17T02:58:11.895Z,87.96
2022-10-17T03:00:42.380Z,87.67
2022-10-17T03:03:22.900Z,87.72
2022-10-17T03:05:54.983Z,87.99
2022-10-17T03:08:26.709Z,87.68
2022-10-17T03:10:55.633Z,87.53
2022-10-17T03:13:24.661Z,87.35
2022-10-17T03:15:53.545Z,88.00
2022-10-17T03:18:22.451Z,87.79
2022-10-17T03:20:55.754Z,87.71
2022-10-17T03:23:25.395Z,87.42
2022-10-17T03:25:54.582Z,87.74
2022-10-17T03:28:23.221Z,88.25
2022-10-17T03:30:51.963Z,87.81
2022-10-17T03:33:20.557Z,87.94
2022-10-17T03:38:21.047Z,87.96
2022-10-17T03:40:56.885Z,87.55
2022-10-17T03:43:25.594Z,87.56
2022-10-17T03:45:54.241Z,88.13
2022-10-17T03:48:22.929Z,88.08
2022-10-17T03:50:52.094Z,88.01
2022-10-17T03:53:22.257Z,87.91
2022-10-17T03:55:50.970Z,87.71
2022-10-17T03:58:20.312Z,88.42
2022-10-17T04:00:49.347Z,87.86
2022-10-17T04:03:18.240Z,87.98
2022-10-17T04:05:46.842Z,88.37
2022-10-17T04:08:15.493Z,88.55
2022-10-17T04:11:08.497Z,88.69
2022-10-17T04:13:37.730Z,88.55
2022-10-17T04:16:11.779Z,88.59
2022-10-17T04:18:46.552Z,88.61
2022-10-17T04:21:15.631Z,88.61
2022-10-17T04:23:44.179Z,88.68
2022-10-17T04:26:26.389Z,88.34
2022-10-17T04:28:55.028Z,88.40
2022-10-17T04:31:23.986Z,88.45
2022-10-17T04:34:16.595Z,88.22
2022-10-17T04:36:45.865Z,88.05
2022-10-17T04:41:45.061Z,88.23
2022-10-17T04:44:14.405Z,88.20
2022-10-17T04:46:48.723Z,88.20
2022-10-17T04:49:17.423Z,88.09
2022-10-17T04:51:49.620Z,88.12
2022-10-17T04:54:22.412Z,88.19
2022-10-17T04:56:58.528Z,88.65
2022-10-17T04:59:28.160Z,88.47
2022-10-17T05:02:07.361Z,88.68
2022-10-17T05:04:37.827Z,88.65
2022-10-17T05:07:07.022Z,88.42
2022-10-17T05:09:47.459Z,88.38
2022-10-17T05:12:18.793Z,88.28
2022-10-17T05:14:48.413Z,87.91
2022-10-17T05:17:17.470Z,88.01
2022-10-17T05:19:46.430Z,87.89
2022-10-17T05:22:16.342Z,87.83
2022-10-17T05:24:45.848Z,87.99
2022-10-17T05:27:15.375Z,87.66
2022-10-17T05:29:45.749Z,88.08
2022-10-17T05:32:35.853Z,88.06
2022-10-17T05:35:05.452Z,88.19
2022-10-17T05:37:34.750Z,88.08
2022-10-17T05:40:05.515Z,88.26
2022-10-17T05:42:34.258Z,87.73
2022-10-17T05:45:05.786Z,87.85
2022-10-17T05:47:34.358Z,87.92
2022-10-17T05:50:03.085Z,87.94
2022-10-17T05:52:45.174Z,87.87
2022-10-17T05:55:17.979Z,88.05
2022-10-17T05:57:46.872Z,87.92
2022-10-17T06:00:20.908Z,87.86
2022-10-17T06:02:57.492Z,87.98
2022-10-17T06:05:26.475Z,87.64
2022-10-17T06:07:58.254Z,87.72
2022-10-17T06:10:31.027Z,87.95
2022-10-17T06:13:00.824Z,88.47
2022-10-17T06:15:31.113Z,88.21
2022-10-17T06:18:05.051Z,88.08
2022-10-17T06:20:35.332Z,88.60
2022-10-17T06:23:04.905Z,88.51
2022-10-17T06:25:48.287Z,88.15
2022-10-17T06:28:17.045Z,88.19
2022-10-17T06:30:47.164Z,88.27
2022-10-17T06:33:16.833Z,88.27
2022-10-17T06:35:51.680Z,88.29
2022-10-17T06:38:20.965Z,88.52
2022-10-17T06:40:51.990Z,88.51
2022-10-17T06:43:26.941Z,88.57
2022-10-17T06:46:01.734Z,88.44
2022-10-17T06:48:40.151Z,89.14
2022-10-17T06:51:41.106Z,88.71
2022-10-17T06:54:12.282Z,89.14
2022-10-17T06:57:00.799Z,88.93
2022-10-17T06:59:43.346Z,89.19
2022-10-17T07:02:20.509Z,89.29
2022-10-17T07:04:49.164Z,89.45
2022-10-17T07:07:17.740Z,89.75
2022-10-17T07:09:46.693Z,89.91
2022-10-17T07:12:17.412Z,90.07
2022-10-17T07:14:47.449Z,90.32
2022-10-17T07:17:16.580Z,90.72
2022-10-17T07:19:47.774Z,90.88
2022-10-17T07:22:16.820Z,91.25
2022-10-17T07:27:29.886Z,91.76
2022-10-17T07:30:00.776Z,92.04
2022-10-17T07:32:36.472Z,92.40
2022-10-17T07:35:08.094Z,92.74
2022-10-17T07:37:38.373Z,93.24
2022-10-17T07:40:10.111Z,93.96
2022-10-17T07:45:09.149Z,94.38
2022-10-17T07:47:38.936Z,94.92
2022-10-17T07:50:11.981Z,95.09
2022-10-17T07:52:42.790Z,95.06
2022-10-17T07:55:11.690Z,95.42
2022-10-17T07:57:40.355Z,95.76
2022-10-17T08:00:10.804Z,96.33
2022-10-17T08:02:43.016Z,96.65
2022-10-17T08:05:13.053Z,96.99
2022-10-17T08:07:41.991Z,97.34
2022-10-17T08:10:13.426Z,97.76
2022-10-17T08:12:42.528Z,98.09
2022-10-17T08:15:12.680Z,98.60
2022-10-17T08:17:41.459Z,98.71
2022-10-17T08:20:13.465Z,99.19
2022-10-17T08:22:42.241Z,99.36
2022-10-17T08:25:11.661Z,99.36
2022-10-17T08:27:40.388Z,99.61
2022-10-17T08:30:10.748Z,99.95
2022-10-17T08:32:39.389Z,100.00
2022-10-17T08:35:09.211Z,100.00
2022-10-17T08:37:39.494Z,100.00
2022-10-17T08:40:16.023Z,100.00
2022-10-17T08:43:08.281Z,100.00
2022-10-17T08:45:47.221Z,100.00
2022-10-17T08:48:21.093Z,100.00
2022-10-17T08:50:54.792Z,100.00
2022-10-17T08:53:34.167Z,100.00
2022-10-17T08:56:19.602Z,100.00
2022-10-17T08:58:54.216Z,99.54
2022-10-17T09:01:36.155Z,98.94
2022-10-17T09:04:44.929Z,98.31
2022-10-17T09:07:23.611Z,96.73
2022-10-17T09:10:06.190Z,97.00
2022-10-17T09:12:48.545Z,95.70
2022-10-17T09:15:49.350Z,94.90
2022-10-17T09:18:25.126Z,93.96
2022-10-17T09:20:58.097Z,93.07
2022-10-17T09:23:31.692Z,91.70
2022-10-17T09:26:04.444Z,89.92
2022-10-17T09:28:37.649Z,88.84
2022-10-17T09:31:13.157Z,86.86
2022-10-17T09:34:00.217Z,86.51
2022-10-17T09:36:33.801Z,85.22
2022-10-17T09:39:06.925Z,83.51
2022-10-17T09:41:46.617Z,82.81
2022-10-17T09:44:21.750Z,81.26
2022-10-17T09:47:24.070Z,79.68
2022-10-17T09:49:53.577Z,78.71
2022-10-17T09:52:29.667Z,78.40
2022-10-17T09:55:06.622Z,77.00
2022-10-17T09:57:57.077Z,74.60
2022-10-17T10:00:30.237Z,74.51
2022-10-17T10:03:21.923Z,73.53
2022-10-17T10:06:03.602Z,73.80
2022-10-17T10:08:35.864Z,74.34
2022-10-17T10:11:13.504Z,75.60
2022-10-17T10:13:45.404Z,74.33
2022-10-17T10:16:25.535Z,76.40
2022-10-17T10:18:54.442Z,77.58
2022-10-17T10:21:27.325Z,77.04
2022-10-17T10:24:13.573Z,76.22
2022-10-17T10:26:46.023Z,77.16
2022-10-17T10:29:31.320Z,78.05
2022-10-17T10:32:11.488Z,77.52
2022-10-17T10:34:48.638Z,76.71
2022-10-17T10:37:22.547Z,75.39
2022-10-17T10:39:54.439Z,75.43
2022-10-17T10:42:29.813Z,74.52
2022-10-17T10:45:23.700Z,72.24
2022-10-17T10:48:01.069Z,72.75
2022-10-17T10:50:40.645Z,73.09
2022-10-17T10:53:35.246Z,72.18
2022-10-17T10:56:12.371Z,72.36
2022-10-17T10:58:54.570Z,73.79
2022-10-17T11:01:35.474Z,73.19
2022-10-17T11:04:22.615Z,72.81
2022-10-17T11:07:03.314Z,74.10
2022-10-17T11:09:47.604Z,74.51
2022-10-17T11:12:25.815Z,73.20
2022-10-17T11:15:04.910Z,73.88
2022-10-17T11:17:46.998Z,74.54
2022-10-17T11:20:28.386Z,73.59
2022-10-17T11:23:20.006Z,74.59
2022-10-17T11:25:53.015Z,74.59
2022-10-17T11:28:25.928Z,75.38
2022-10-17T11:31:05.797Z,75.20
2022-10-17T11:33:47.373Z,73.80
2022-10-17T11:36:19.638Z,73.60
2022-10-17T11:38:54.255Z,72.73
2022-10-17T11:41:43.164Z,74.06
2022-10-17T11:44:22.550Z,74.07
2022-10-17T11:46:58.669Z,74.81
2022-10-17T11:49:40.570Z,74.63
2022-10-17T11:52:51.426Z,74.85
2022-10-17T11:55:24.552Z,75.38
2022-10-17T11:58:18.924Z,75.89
2022-10-17T12:01:08.751Z,75.39
2022-10-17T12:03:54.623Z,74.66
2022-10-17T12:06:51.256Z,74.06
2022-10-17T12:09:36.478Z,73.87
2022-10-17T12:12:05.943Z,74.03
2022-10-17T12:14:45.165Z,74.11
2022-10-17T12:17:42.358Z,74.92
2022-10-17T12:20:39.103Z,73.77
2022-10-17T12:23:29.666Z,73.26
2022-10-17T12:26:04.742Z,73.36
2022-10-17T12:28:42.462Z,72.40
2022-10-17T12:31:29.753Z,72.43
2022-10-17T12:34:03.704Z,72.53
2022-10-17T12:36:42.261Z,72.64
2022-10-17T12:39:52.516Z,72.14
2022-10-17T12:42:51.301Z,72.67
2022-10-17T12:45:50.113Z,72.96
2022-10-17T12:49:21.635Z,73.13
2022-10-17T12:52:26.061Z,73.50
2022-10-17T12:55:17.649Z,73.94
2022-10-17T12:57:56.859Z,73.50
2022-10-17T13:00:36.047Z,73.55
2022-10-17T13:03:14.143Z,73.37
2022-10-17T13:05:49.926Z,73.82
2022-10-17T13:08:24.365Z,75.58
2022-10-17T13:10:56.746Z,76.34
2022-10-17T13:13:39.178Z,76.74
2022-10-17T13:16:09.815Z,78.09
2022-10-17T13:18:38.507Z,78.49
2022-10-17T13:21:17.229Z,78.86
2022-10-17T13:23:51.187Z,78.93
2022-10-17T13:26:24.161Z,79.03
2022-10-17T13:31:45.126Z,80.18
2022-10-17T13:34:21.587Z,80.20
2022-10-17T13:36:53.807Z,80.81
2022-10-17T13:39:38.553Z,80.72
2022-10-17T13:42:32.284Z,80.94
2022-10-17T13:45:01.508Z,81.69
2022-10-17T13:47:37.870Z,82.25
2022-10-17T13:50:26.493Z,81.86
2022-10-17T13:53:30.486Z,81.62
2022-10-17T13:56:26.491Z,81.87
2022-10-17T13:58:57.431Z,81.48
2022-10-17T14:01:28.733Z,81.54
2022-10-17T14:04:08.481Z,81.78
2022-10-17T14:06:46.404Z,81.83
2022-10-17T14:09:25.531Z,81.99
2022-10-17T14:12:05.107Z,81.91
2022-10-17T14:14:58.084Z,82.33
2022-10-17T14:17:29.432Z,82.18
2022-10-17T14:23:20.849Z,82.57
2022-10-17T14:25:42.652Z,82.09
2022-10-17T14:28:18.496Z,82.36
2022-10-17T14:30:57.219Z,82.30
2022-10-17T14:33:31.365Z,82.52
2022-10-17T14:36:03.053Z,82.92
2022-10-17T14:38:32.985Z,82.52
2022-10-17T14:41:37.814Z,82.63
2022-10-17T14:44:00.338Z,82.97
2022-10-17T14:46:30.869Z,82.72
2022-10-17T14:49:07.498Z,83.09
2022-10-17T14:51:50.247Z,83.21
2022-10-17T14:54:30.402Z,83.64
2022-10-17T14:56:58.986Z,83.62
2022-10-17T14:59:52.682Z,83.70
2022-10-17T15:02:17.829Z,83.55
2022-10-17T15:04:46.493Z,83.57
2022-10-17T15:07:18.160Z,82.63
2022-10-17T15:09:49.663Z,82.46
2022-10-17T15:12:25.958Z,82.56
2022-10-17T15:14:55.283Z,82.68
2022-10-17T15:17:27.897Z,82.78
2022-10-17T15:19:58.041Z,83.19
2022-10-17T15:22:27.590Z,82.95
2022-10-17T15:24:58.233Z,82.90
2022-10-17T15:27:27.761Z,83.00
2022-10-17T15:29:56.717Z,83.77
2022-10-17T15:32:26.902Z,83.67
2022-10-17T15:34:56.010Z,83.69
2022-10-17T15:37:26.870Z,83.20
2022-10-17T15:39:57.537Z,83.14
2022-10-17T15:42:31.366Z,82.96
2022-10-17T15:45:00.473Z,82.56
2022-10-17T15:47:34.672Z,81.86
2022-10-17T15:50:03.931Z,82.03
2022-10-17T15:52:33.117Z,81.47
2022-10-17T15:55:04.383Z,81.38
2022-10-17T15:57:39.515Z,81.58
2022-10-17T16:00:17.474Z,81.53
2022-10-17T16:02:49.793Z,81.75
2022-10-17T16:05:23.801Z,81.97
2022-10-17T16:07:53.879Z,82.17
2022-10-17T16:10:26.041Z,82.33
2022-10-17T16:12:55.651Z,82.22
2022-10-17T16:15:26.724Z,82.14
2022-10-17T16:18:01.663Z,82.15
2022-10-17T16:20:33.195Z,82.21
2022-10-17T16:23:04.984Z,82.20
2022-10-17T16:25:34.519Z,82.19
2022-10-17T16:28:04.517Z,82.72
2022-10-17T16:30:35.159Z,82.69
2022-10-17T16:33:06.630Z,82.38
2022-10-17T16:35:37.558Z,83.31
2022-10-17T16:38:08.401Z,82.96
2022-10-17T16:40:41.026Z,83.30
2022-10-17T16:43:13.610Z,83.90
2022-10-17T16:45:42.980Z,83.38
2022-10-17T16:48:13.624Z,83.21
2022-10-17T16:50:42.833Z,83.24
2022-10-17T16:53:11.733Z,83.25
2022-10-17T16:55:40.762Z,83.34
2022-10-17T16:58:10.026Z,83.58
2022-10-17T17:00:41.062Z,83.66
2022-10-17T17:03:10.153Z,83.65
2022-10-17T17:05:43.639Z,83.49
2022-10-17T17:08:12.755Z,83.76
2022-10-17T17:10:46.876Z,83.55
2022-10-17T17:13:17.126Z,83.63
2022-10-17T17:15:46.366Z,83.76
2022-10-17T17:18:16.201Z,83.39
2022-10-17T17:20:46.908Z,83.34
2022-10-17T17:23:18.350Z,83.45
2022-10-17T17:25:47.402Z,83.91
2022-10-17T17:28:16.112Z,84.13
2022-10-17T17:30:46.936Z,83.80
2022-10-17T17:33:15.696Z,84.21
2022-10-17T17:35:48.416Z,84.89
2022-10-17T17:38:17.525Z,84.54
2022-10-17T17:40:50.775Z,84.30
2022-10-17T17:43:20.647Z,84.93
2022-10-17T17:45:49.605Z,85.08
2022-10-17T17:48:18.950Z,85.21
2022-10-17T17:50:49.907Z,85.28
2022-10-17T17:53:22.082Z,85.80
2022-10-17T17:56:03.434Z,85.63
2022-10-17T17:58:32.345Z,85.65
2022-10-17T18:01:02.077Z,85.82
2022-10-17T18:03:31.472Z,85.91
2022-10-17T18:06:02.448Z,85.96
2022-10-17T18:08:31.620Z,86.38
2022-10-17T18:11:00.835Z,86.28
2022-10-17T18:13:30.097Z,86.43
2022-10-17T18:16:01.975Z,86.16
2022-10-17T18:18:32.012Z,86.54
2022-10-17T18:21:04.575Z,86.34
2022-10-17T18:23:33.704Z,86.55
2022-10-17T18:26:03.038Z,86.72
2022-10-17T18:28:34.358Z,86.94
2022-10-17T18:31:08.040Z,86.95
2022-10-17T18:33:37.572Z,86.61
2022-10-17T18:36:11.350Z,87.11
2022-10-17T18:38:40.291Z,87.40
2022-10-17T18:41:12.227Z,87.25
2022-10-17T18:43:44.169Z,87.07
2022-10-17T18:46:19.322Z,87.33
2022-10-17T18:48:50.941Z,86.94
2022-10-17T18:51:24.388Z,87.42
2022-10-17T18:53:56.531Z,88.21
2022-10-17T18:56:27.084Z,87.92
2022-10-17T18:58:56.901Z,87.48
2022-10-17T19:01:28.813Z,88.64
2022-10-17T19:04:00.953Z,88.04
2022-10-17T19:06:33.439Z,88.10
2022-10-17T19:09:06.668Z,88.07
2022-10-17T19:11:37.421Z,88.24
2022-10-17T19:14:13.548Z,88.91
2022-10-17T19:16:48.281Z,89.16
2022-10-17T19:19:19.778Z,89.23
2022-10-17T19:21:50.608Z,89.20
2022-10-17T19:24:22.211Z,88.62
2022-10-17T19:26:53.755Z,88.37
2022-10-17T19:29:25.739Z,88.39
2022-10-17T19:34:28.946Z,88.43
2022-10-17T19:36:59.191Z,88.26
2022-10-17T19:39:28.203Z,88.22
2022-10-17T19:41:57.038Z,88.78
2022-10-17T19:44:25.879Z,89.31
2022-10-17T19:46:54.602Z,89.21
2022-10-17T19:49:23.126Z,89.13
2022-10-17T19:51:51.890Z,88.73
2022-10-17T19:54:21.833Z,89.05
2022-10-17T19:56:50.514Z,88.71
2022-10-17T19:59:19.478Z,88.01
2022-10-17T20:01:48.405Z,87.70
2022-10-17T20:04:17.067Z,87.71
2022-10-17T20:06:45.702Z,87.84
2022-10-17T20:09:16.976Z,87.61
2022-10-17T20:11:50.721Z,88.10
2022-10-17T20:14:19.491Z,87.80
2022-10-17T20:16:52.972Z,88.47
2022-10-17T20:19:21.927Z,88.73
2022-10-17T20:21:50.649Z,88.30
2022-10-17T20:24:19.395Z,88.79
2022-10-17T20:26:49.494Z,88.83
2022-10-17T20:29:21.057Z,88.85
2022-10-17T20:31:50.271Z,88.12
2022-10-17T20:34:20.854Z,88.21
2022-10-17T20:36:50.953Z,88.27
2022-10-17T20:39:22.072Z,88.10
2022-10-17T20:41:52.152Z,87.61
2022-10-17T20:44:20.956Z,87.84
2022-10-17T20:47:01.100Z,88.55
2022-10-17T20:49:31.718Z,88.03
2022-10-17T20:52:01.647Z,88.16
2022-10-17T20:54:30.433Z,87.70
2022-10-17T20:57:03.888Z,88.22
2022-10-17T20:59:35.311Z,88.19
2022-10-17T21:02:04.193Z,87.97
2022-10-17T21:04:46.350Z,87.76
2022-10-17T21:07:15.717Z,87.57
2022-10-17T21:09:45.494Z,87.16
2022-10-17T21:12:25.834Z,87.25
2022-10-17T21:15:00.192Z,87.87
2022-10-17T21:17:28.959Z,87.64
2022-10-17T21:19:57.705Z,87.27
2022-10-17T21:22:26.486Z,87.15
2022-10-17T21:24:55.192Z,87.89
2022-10-17T21:27:25.202Z,87.49
2022-10-17T21:29:53.874Z,87.19
2022-10-17T21:32:40.089Z,87.07
2022-10-17T21:35:11.438Z,87.25
2022-10-17T21:37:40.077Z,87.14
2022-10-17T21:40:13.489Z,87.29
2022-10-17T21:42:43.617Z,87.74
2022-10-17T21:45:15.809Z,87.92
2022-10-17T21:48:18.543Z,87.41
2022-10-17T21:50:37.462Z,87.59
2022-10-17T21:53:06.011Z,87.67
2022-10-17T21:55:37.158Z,87.65
2022-10-17T21:58:07.214Z,87.43
2022-10-17T22:00:35.805Z,87.68
2022-10-17T22:03:05.958Z,87.74
2022-10-17T22:05:34.633Z,87.76
2022-10-17T22:08:03.276Z,88.08
2022-10-17T22:10:32.125Z,88.46
2022-10-17T22:13:00.741Z,88.74
2022-10-17T22:15:31.428Z,88.77
2022-10-17T22:18:00.091Z,87.92
2022-10-17T22:20:28.787Z,88.75
2022-10-17T22:22:57.352Z,88.41
2022-10-17T22:25:26.433Z,88.75
2022-10-17T22:27:55.161Z,88.82
2022-10-17T22:30:23.802Z,88.97
2022-10-17T22:32:53.815Z,88.78
2022-10-17T22:35:22.445Z,89.21
2022-10-17T22:37:51.024Z,89.30
2022-10-17T22:40:19.743Z,89.43
2022-10-17T22:42:48.280Z,89.27
2022-10-17T22:45:16.989Z,89.09
2022-10-17T22:47:45.562Z,89.55
2022-10-17T22:50:15.656Z,90.12
2022-10-17T22:52:44.228Z,90.71
2022-10-17T22:55:12.967Z,90.53
2022-10-17T22:57:42.221Z,90.39
2022-10-17T23:00:13.779Z,90.05
2022-10-17T23:02:42.588Z,90.54
2022-10-17T23:05:12.281Z,90.33
2022-10-17T23:07:42.334Z,90.73
2022-10-17T23:10:11.746Z,90.57
2022-10-17T23:12:40.348Z,90.33
2022-10-17T23:15:10.593Z,91.32
2022-10-17T23:17:39.233Z,91.07
2022-10-17T23:20:09.404Z,90.69
2022-10-17T23:22:37.986Z,90.63
2022-10-17T23:25:09.532Z,90.90
2022-10-17T23:27:38.330Z,90.65
2022-10-17T23:30:08.548Z,90.74
2022-10-17T23:32:37.226Z,90.67
2022-10-17T23:35:06.764Z,90.37
2022-10-17T23:37:35.874Z,90.41
2022-10-17T23:40:05.973Z,90.39
2022-10-17T23:42:35.963Z,90.07
2022-10-17T23:45:05.302Z,90.36
2022-10-17T23:47:34.085Z,90.31
2022-10-17T23:50:02.959Z,90.18
2022-10-17T23:52:31.692Z,90.48
2022-10-17T23:55:00.406Z,91.15
2022-10-17T23:57:29.380Z,90.76
2022-10-17T23:59:59.626Z,90.79
